Time;durP1;ratioP1;P1;durP2;ratioP2;P2;SDS_P1;SDS_P2;PMS_P1;PMS_P2;Temp;Humidity;BMP_temperature;BMP_pressure;BME280_temperature;BME280_humidity;BME280_pressure;Samples;Min_cycle;Max_cycle;Signal;HPM_P1;HPM_P2
2024/01/16 00:01:45;;;;;;;7.45;2.30;;;;;;;;;;5008391;28;93002;-67
2024/01/16 00:04:12;;;;;;;10.07;2.10;;;;;;;;;;5000534;28;93483;-67
2024/01/16 00:06:40;;;;;;;12.85;2.63;;;;;;;;;;4998739;28;93402;-67
2024/01/16 00:09:06;;;;;;;6.90;1.98;;;;;;;;;;5001770;28;92452;-67
2024/01/16 00:11:33;;;;;;;13.55;2.20;;;;;;;;;;5002341;28;94146;-67
2024/01/16 00:13:59;;;;;;;6.35;1.60;;;;;;;;;;4998661;28;92496;-69
2024/01/16 00:16:25;;;;;;;15.20;2.13;;;;;;;;;;5001520;28;92598;-69
2024/01/16 00:18:52;;;;;;;7.82;1.65;;;;;;;;;;5001918;28;93541;-69
2024/01/16 00:21:18;;;;;;;12.57;2.88;;;;;;;;;;5000541;28;95010;-69
2024/01/16 00:23:45;;;;;;;11.88;2.90;;;;;;;;;;5001355;28;96752;-70
2024/01/16 00:26:19;;;;;;;8.95;1.88;;;;;;;;;;5001099;28;93776;-70
2024/01/16 00:28:46;;;;;;;9.43;2.10;;;;;;;;;;5004579;28;92546;-70
2024/01/16 00:31:12;;;;;;;6.63;1.80;;;;;;;;;;4998566;28;93312;-69
2024/01/16 00:33:39;;;;;;;12.07;1.52;;;;;;;;;;4998251;28;94521;-69
2024/01/16 00:36:06;;;;;;;12.18;2.20;;;;;;;;;;5004962;28;92472;-69
2024/01/16 00:38:33;;;;;;;11.63;2.15;;;;;;;;;;5001014;28;92777;-70
2024/01/16 00:40:59;;;;;;;8.43;1.65;;;;;;;;;;5002054;28;93345;-69
2024/01/16 00:43:25;;;;;;;13.73;1.95;;;;;;;;;;5000454;28;94249;-70
2024/01/16 00:45:52;;;;;;;14.40;2.30;;;;;;;;;;4999524;28;95903;-69
2024/01/16 00:48:20;;;;;;;13.02;1.30;;;;;;;;;;4996185;28;92586;-69
2024/01/16 00:50:49;;;;;;;5.53;1.60;;;;;;;;;;5003179;28;93211;-69
2024/01/16 00:53:16;;;;;;;7.65;1.13;;;;;;;;;;5004174;28;93392;-69
2024/01/16 00:55:42;;;;;;;12.93;1.80;;;;;;;;;;5000399;28;92491;-69
2024/01/16 00:58:09;;;;;;;9.15;1.90;;;;;;;;;;5005466;28;93286;-69
2024/01/16 01:00:37;;;;;;;13.13;2.13;;;;;;;;;;5000510;28;92409;-69
2024/01/16 01:03:04;;;;;;;8.95;2.03;;;;;;;;;;4996879;28;94337;-69
2024/01/16 01:05:30;;;;;;;13.70;2.22;;;;;;;;;;5002331;28;92562;-69
2024/01/16 01:07:57;;;;;;;4.05;1.45;;;;;;;;;;5003768;28;92560;-70
2024/01/16 01:10:23;;;;;;;5.70;1.60;;;;;;;;;;5004363;28;96269;-69
2024/01/16 01:12:51;;;;;;;14.07;1.92;;;;;;;;;;4996574;28;93454;-69
2024/01/16 01:15:18;;;;;;;5.72;1.38;;;;;;;;;;5001618;28;92671;-69
2024/01/16 01:17:44;;;;;;;16.10;2.03;;;;;;;;;;4999540;28;92655;-70
2024/01/16 01:20:12;;;;;;;10.70;2.20;;;;;;;;;;5002972;28;93429;-69
2024/01/16 01:22:39;;;;;;;10.63;2.17;;;;;;;;;;5001287;28;92689;-69
2024/01/16 01:25:05;;;;;;;10.43;1.98;;;;;;;;;;4999330;28;93435;-67
2024/01/16 01:27:32;;;;;;;9.57;1.70;;;;;;;;;;5001337;28;91836;-68
2024/01/16 01:29:58;;;;;;;13.45;2.25;;;;;;;;;;5002251;28;92750;-68
2024/01/16 01:32:24;;;;;;;7.28;1.77;;;;;;;;;;4999028;28;93488;-67
2024/01/16 01:34:51;;;;;;;13.10;2.25;;;;;;;;;;4993971;28;96067;-67
2024/01/16 01:37:17;;;;;;;5.78;1.80;;;;;;;;;;5000420;28;96590;-68
2024/01/16 01:39:43;;;;;;;12.18;2.33;;;;;;;;;;4999999;28;93326;-68
2024/01/16 01:42:10;;;;;;;7.18;1.50;;;;;;;;;;5004069;28;92436;-68
2024/01/16 01:44:36;;;;;;;12.88;2.90;;;;;;;;;;5002531;28;93369;-68
2024/01/16 01:47:03;;;;;;;10.20;1.60;;;;;;;;;;4999256;28;92516;-68
2024/01/16 01:49:30;;;;;;;8.02;2.20;;;;;;;;;;4997422;28;93464;-68
2024/01/16 01:51:57;;;;;;;4.68;1.50;;;;;;;;;;4993804;28;93072;-68
2024/01/16 01:54:24;;;;;;;7.00;1.67;;;;;;;;;;4999484;28;92476;-68
2024/01/16 01:56:50;;;;;;;7.90;1.67;;;;;;;;;;4997249;28;93103;-68
2024/01/16 01:59:21;;;;;;;5.97;1.88;;;;;;;;;;4997420;28;96531;-68
2024/01/16 02:01:47;;;;;;;15.43;1.67;;;;;;;;;;5001771;28;92496;-68
2024/01/16 02:04:15;;;;;;;7.70;1.65;;;;;;;;;;5002777;28;93333;-68
2024/01/16 02:06:43;;;;;;;13.57;1.50;;;;;;;;;;4993161;28;95319;-68
2024/01/16 02:09:10;;;;;;;4.53;1.48;;;;;;;;;;5000131;28;93695;-68
2024/01/16 02:11:36;;;;;;;5.15;1.08;;;;;;;;;;5001338;28;95232;-67
2024/01/16 02:14:03;;;;;;;12.57;1.63;;;;;;;;;;5003625;28;92531;-68
2024/01/16 02:16:35;;;;;;;11.32;1.70;;;;;;;;;;5005077;28;93217;-68
2024/01/16 02:19:01;;;;;;;8.00;1.48;;;;;;;;;;5008343;28;95107;-68
2024/01/16 02:21:28;;;;;;;8.60;1.40;;;;;;;;;;5007754;28;92425;-67
2024/01/16 02:23:54;;;;;;;8.82;1.42;;;;;;;;;;5004274;28;94893;-68
2024/01/16 02:26:21;;;;;;;12.70;1.48;;;;;;;;;;5007731;28;93649;-68
2024/01/16 02:28:48;;;;;;;6.13;1.23;;;;;;;;;;5004700;28;93109;-68
2024/01/16 02:31:14;;;;;;;15.05;1.15;;;;;;;;;;5009876;28;93395;-68
2024/01/16 02:33:41;;;;;;;5.93;1.20;;;;;;;;;;5004579;28;92453;-68
2024/01/16 02:36:07;;;;;;;4.03;1.15;;;;;;;;;;4998985;28;93495;-68
2024/01/16 02:38:34;;;;;;;7.35;1.38;;;;;;;;;;4999312;28;93377;-70
2024/01/16 02:41:00;;;;;;;8.30;1.42;;;;;;;;;;5001119;28;91738;-68
2024/01/16 02:43:27;;;;;;;6.60;1.50;;;;;;;;;;4997662;28;92499;-68
2024/01/16 02:45:54;;;;;;;5.18;1.25;;;;;;;;;;5000656;28;93419;-68
2024/01/16 02:48:20;;;;;;;9.15;1.10;;;;;;;;;;5001048;28;94837;-68
2024/01/16 02:50:46;;;;;;;5.78;1.17;;;;;;;;;;5001254;28;93637;-67
2024/01/16 02:53:13;;;;;;;12.52;1.75;;;;;;;;;;5004494;28;95541;-67
2024/01/16 02:55:39;;;;;;;5.60;1.20;;;;;;;;;;5003139;28;93316;-68
2024/01/16 02:58:06;;;;;;;3.13;1.05;;;;;;;;;;5000829;28;93202;-68
2024/01/16 03:00:32;;;;;;;3.05;0.98;;;;;;;;;;5001401;28;92662;-68
2024/01/16 03:02:58;;;;;;;4.15;0.90;;;;;;;;;;5000553;28;93103;-68
2024/01/16 03:05:25;;;;;;;4.93;0.90;;;;;;;;;;5003211;28;92680;-68
2024/01/16 03:07:51;;;;;;;6.97;1.17;;;;;;;;;;5003682;28;92534;-68
2024/01/16 03:10:18;;;;;;;2.72;0.95;;;;;;;;;;5004608;28;93388;-68
2024/01/16 03:12:44;;;;;;;5.50;0.88;;;;;;;;;;5002698;28;94850;-68
2024/01/16 03:15:10;;;;;;;3.90;0.90;;;;;;;;;;5002107;28;94360;-68
2024/01/16 03:17:37;;;;;;;7.10;1.08;;;;;;;;;;5000458;28;93735;-68
2024/01/16 03:20:03;;;;;;;6.30;1.17;;;;;;;;;;5004630;28;92469;-68
2024/01/16 03:22:30;;;;;;;7.35;1.10;;;;;;;;;;5001571;28;93254;-68
2024/01/16 03:24:56;;;;;;;6.20;1.17;;;;;;;;;;5002310;28;93371;-68
2024/01/16 03:27:23;;;;;;;5.55;1.15;;;;;;;;;;5004178;28;92594;-68
2024/01/16 03:29:49;;;;;;;4.65;1.35;;;;;;;;;;5006702;28;93495;-70
2024/01/16 03:32:16;;;;;;;4.93;1.20;;;;;;;;;;5004619;28;92532;-68
2024/01/16 03:34:42;;;;;;;8.30;1.27;;;;;;;;;;4998296;28;94547;-68
2024/01/16 03:37:08;;;;;;;4.13;1.58;;;;;;;;;;5000162;28;95868;-67
2024/01/16 03:39:35;;;;;;;2.38;1.23;;;;;;;;;;5006232;28;93629;-68
2024/01/16 03:42:01;;;;;;;5.18;0.80;;;;;;;;;;5000345;28;93158;-68
2024/01/16 03:44:27;;;;;;;6.50;1.05;;;;;;;;;;5005388;28;92605;-68
2024/01/16 03:46:55;;;;;;;4.53;0.70;;;;;;;;;;4998830;28;92738;-68
2024/01/16 03:49:21;;;;;;;4.53;0.55;;;;;;;;;;5003180;28;93239;-68
2024/01/16 03:51:47;;;;;;;9.55;1.02;;;;;;;;;;5000507;28;93926;-68
2024/01/16 03:54:14;;;;;;;2.08;0.70;;;;;;;;;;5000690;28;93425;-68
2024/01/16 03:56:40;;;;;;;5.28;0.75;;;;;;;;;;5002912;28;93379;-67
2024/01/16 03:59:07;;;;;;;4.25;1.10;;;;;;;;;;5000692;28;92599;-68
2024/01/16 04:01:33;;;;;;;3.47;0.73;;;;;;;;;;5001159;28;94964;-68
2024/01/16 04:04:00;;;;;;;3.35;0.70;;;;;;;;;;5002543;28;93767;-68
2024/01/16 04:06:28;;;;;;;2.22;1.00;;;;;;;;;;4998068;28;92398;-67
2024/01/16 04:08:55;;;;;;;3.10;0.80;;;;;;;;;;5004859;28;93407;-68
2024/01/16 04:11:21;;;;;;;3.35;1.05;;;;;;;;;;5003985;28;93437;-68
2024/01/16 04:13:48;;;;;;;6.40;1.02;;;;;;;;;;5004469;28;92964;-68
2024/01/16 04:16:14;;;;;;;6.40;0.77;;;;;;;;;;5001327;28;93766;-68
2024/01/16 04:18:42;;;;;;;4.28;0.82;;;;;;;;;;4996715;28;91855;-68
2024/01/16 04:21:09;;;;;;;3.15;0.98;;;;;;;;;;5000949;28;92778;-68
2024/01/16 04:23:35;;;;;;;5.15;1.67;;;;;;;;;;5001931;28;93923;-68
2024/01/16 04:26:01;;;;;;;9.30;1.00;;;;;;;;;;5002020;28;95232;-68
2024/01/16 04:28:28;;;;;;;3.38;0.80;;;;;;;;;;4994606;28;95828;-68
2024/01/16 04:30:54;;;;;;;6.15;1.40;;;;;;;;;;5001452;28;93461;-68
2024/01/16 04:33:21;;;;;;;5.78;1.35;;;;;;;;;;5001872;28;92512;-68
2024/01/16 04:35:47;;;;;;;10.05;1.40;;;;;;;;;;5003739;28;93272;-67
2024/01/16 04:38:14;;;;;;;3.78;1.38;;;;;;;;;;5000451;28;92415;-68
2024/01/16 04:40:40;;;;;;;6.57;1.40;;;;;;;;;;5001894;28;93114;-68
2024/01/16 04:43:06;;;;;;;10.50;1.48;;;;;;;;;;5002875;28;92710;-68
2024/01/16 04:45:33;;;;;;;8.25;1.77;;;;;;;;;;5011220;28;92652;-68
2024/01/16 04:47:59;;;;;;;5.05;1.17;;;;;;;;;;5000226;28;92909;-68
2024/01/16 04:50:31;;;;;;;3.72;1.33;;;;;;;;;;4999228;28;96116;-68
2024/01/16 04:53:01;;;;;;;2.92;1.02;;;;;;;;;;4997406;28;92423;-68
2024/01/16 04:55:28;;;;;;;5.85;0.98;;;;;;;;;;5002751;28;93100;-68
2024/01/16 04:57:55;;;;;;;8.50;1.85;;;;;;;;;;5002520;28;92745;-68
2024/01/16 05:00:22;;;;;;;7.32;1.55;;;;;;;;;;5004776;28;93097;-68
2024/01/16 05:02:48;;;;;;;9.20;2.22;;;;;;;;;;5004456;28;93420;-69
2024/01/16 05:05:15;;;;;;;5.50;1.35;;;;;;;;;;5002754;28;92463;-68
2024/01/16 05:07:42;;;;;;;3.47;1.30;;;;;;;;;;5003122;28;93132;-68
2024/01/16 05:10:12;;;;;;;5.30;1.30;;;;;;;;;;5001754;28;93402;-68
2024/01/16 05:12:40;;;;;;;2.65;1.30;;;;;;;;;;5004185;28;92494;-68
2024/01/16 05:15:07;;;;;;;6.57;1.45;;;;;;;;;;4994371;28;94914;-69
2024/01/16 05:17:33;;;;;;;4.32;1.35;;;;;;;;;;5006344;28;93375;-68
2024/01/16 05:20:00;;;;;;;8.35;1.60;;;;;;;;;;4997129;28;93070;-69
2024/01/16 05:22:26;;;;;;;1.67;1.35;;;;;;;;;;5000499;28;93899;-68
2024/01/16 05:24:52;;;;;;;2.90;1.35;;;;;;;;;;5003041;28;92772;-68
2024/01/16 05:27:19;;;;;;;4.63;1.50;;;;;;;;;;4999522;28;93349;-68
2024/01/16 05:29:45;;;;;;;5.38;1.95;;;;;;;;;;5002157;28;93562;-68
2024/01/16 05:32:13;;;;;;;4.85;2.42;;;;;;;;;;5000876;28;91812;-68
2024/01/16 05:34:39;;;;;;;7.78;2.10;;;;;;;;;;5001472;28;92580;-68
2024/01/16 05:37:06;;;;;;;8.07;2.40;;;;;;;;;;4996989;28;94074;-68
2024/01/16 05:39:32;;;;;;;4.43;1.67;;;;;;;;;;5005060;28;94950;-69
2024/01/16 05:41:59;;;;;;;5.70;2.10;;;;;;;;;;4999977;28;93509;-69
2024/01/16 05:44:25;;;;;;;8.05;2.30;;;;;;;;;;5003674;28;92717;-69
2024/01/16 05:46:51;;;;;;;4.20;2.10;;;;;;;;;;4993316;28;93345;-68
2024/01/16 05:49:18;;;;;;;3.50;1.80;;;;;;;;;;4998597;28;94559;-68
2024/01/16 05:51:44;;;;;;;5.07;2.90;;;;;;;;;;5001289;28;92649;-68
2024/01/16 05:54:11;;;;;;;7.30;2.47;;;;;;;;;;5001775;28;93064;-68
2024/01/16 05:56:37;;;;;;;6.72;2.75;;;;;;;;;;5006455;28;92695;-69
2024/01/16 05:59:04;;;;;;;3.65;2.20;;;;;;;;;;5007101;28;92719;-68
2024/01/16 06:01:30;;;;;;;6.57;3.13;;;;;;;;;;5008852;28;93124;-69
2024/01/16 06:03:56;;;;;;;10.80;4.18;;;;;;;;;;5005350;28;94917;-68
2024/01/16 06:06:23;;;;;;;4.80;3.40;;;;;;;;;;5002394;28;95738;-68
2024/01/16 06:08:49;;;;;;;5.03;2.63;;;;;;;;;;5001652;28;93378;-68
2024/01/16 06:11:16;;;;;;;8.05;4.05;;;;;;;;;;5005867;28;92484;-68
2024/01/16 06:13:42;;;;;;;6.57;2.80;;;;;;;;;;5000729;28;93137;-68
2024/01/16 06:16:09;;;;;;;9.25;2.97;;;;;;;;;;5003177;28;93757;-68
2024/01/16 06:18:35;;;;;;;7.82;2.85;;;;;;;;;;4999542;28;93008;-68
2024/01/16 06:21:03;;;;;;;7.50;4.15;;;;;;;;;;5000773;28;91595;-68
2024/01/16 06:23:30;;;;;;;10.07;4.10;;;;;;;;;;5009437;28;93596;-68
2024/01/16 06:25:56;;;;;;;6.53;3.38;;;;;;;;;;5004132;28;93486;-68
2024/01/16 06:28:23;;;;;;;6.30;3.55;;;;;;;;;;5002230;28;98856;-68
2024/01/16 06:30:49;;;;;;;10.13;3.17;;;;;;;;;;5004717;28;92870;-68
2024/01/16 06:33:15;;;;;;;6.90;3.42;;;;;;;;;;5001207;28;93181;-68
2024/01/16 06:35:42;;;;;;;6.32;4.05;;;;;;;;;;5005792;28;93378;-68
2024/01/16 06:38:08;;;;;;;8.95;3.85;;;;;;;;;;5001738;28;93019;-69
2024/01/16 06:40:35;;;;;;;7.22;3.60;;;;;;;;;;5003254;28;92444;-68
2024/01/16 06:43:01;;;;;;;27.83;11.18;;;;;;;;;;5006394;28;93744;-68
2024/01/16 06:45:28;;;;;;;19.65;9.40;;;;;;;;;;5005037;28;91544;-69
2024/01/16 06:47:55;;;;;;;22.05;11.77;;;;;;;;;;5001806;28;92712;-68
2024/01/16 06:50:21;;;;;;;17.17;8.60;;;;;;;;;;5004056;28;92516;-68
2024/01/16 06:52:48;;;;;;;20.23;8.48;;;;;;;;;;4999026;28;94964;-67
2024/01/16 06:55:14;;;;;;;17.55;7.75;;;;;;;;;;5003602;28;93458;-68
2024/01/16 06:57:40;;;;;;;13.45;5.97;;;;;;;;;;5001786;28;92532;-68
2024/01/16 07:00:07;;;;;;;8.52;5.18;;;;;;;;;;5006011;28;93141;-68
2024/01/16 07:02:33;;;;;;;9.50;4.65;;;;;;;;;;5003488;28;94465;-67
2024/01/16 07:05:00;;;;;;;9.35;4.47;;;;;;;;;;5008296;28;92611;-68
2024/01/16 07:07:26;;;;;;;18.55;8.15;;;;;;;;;;5004032;28;93950;-68
2024/01/16 07:09:53;;;;;;;21.67;9.00;;;;;;;;;;5009217;28;91614;-69
2024/01/16 07:12:19;;;;;;;9.38;5.68;;;;;;;;;;5001216;28;92461;-67
2024/01/16 07:14:45;;;;;;;10.98;4.95;;;;;;;;;;5002760;28;93448;-67
2024/01/16 07:17:12;;;;;;;11.38;5.70;;;;;;;;;;4998833;28;95066;-64
2024/01/16 07:19:38;;;;;;;12.00;5.63;;;;;;;;;;5003321;28;95635;-68
2024/01/16 07:22:05;;;;;;;8.43;5.15;;;;;;;;;;5005717;28;93719;-67
2024/01/16 07:24:31;;;;;;;10.95;4.63;;;;;;;;;;5000684;28;92561;-69
2024/01/16 07:26:58;;;;;;;9.02;5.35;;;;;;;;;;5004739;28;93135;-69
2024/01/16 07:29:24;;;;;;;10.88;5.35;;;;;;;;;;5004982;28;92591;-67
2024/01/16 07:31:52;;;;;;;19.23;5.63;;;;;;;;;;5002662;28;93162;-69
2024/01/16 07:34:21;;;;;;;12.30;5.80;;;;;;;;;;5004144;28;92639;-68
2024/01/16 07:36:48;;;;;;;13.05;5.18;;;;;;;;;;5004381;28;92551;-70
2024/01/16 07:39:14;;;;;;;13.43;5.15;;;;;;;;;;5001670;28;93092;-66
2024/01/16 07:41:41;;;;;;;21.42;4.70;;;;;;;;;;5006391;28;95808;-67
2024/01/16 07:44:07;;;;;;;12.38;4.25;;;;;;;;;;4987306;28;92577;-69
2024/01/16 07:46:34;;;;;;;12.45;4.30;;;;;;;;;;4997366;28;93262;-68
2024/01/16 07:49:00;;;;;;;15.07;4.57;;;;;;;;;;4994437;28;92467;-68
2024/01/16 07:51:27;;;;;;;16.90;5.35;;;;;;;;;;4989767;28;93184;-69
2024/01/16 07:54:04;;;;;;;11.57;5.07;;;;;;;;;;4989891;28;93322;-69
2024/01/16 07:56:30;;;;;;;10.52;5.03;;;;;;;;;;4989412;28;93600;-69
2024/01/16 07:58:57;;;;;;;16.90;5.38;;;;;;;;;;5000778;28;93192;-68
2024/01/16 08:01:23;;;;;;;16.95;5.32;;;;;;;;;;5003294;28;92602;-69
2024/01/16 08:03:50;;;;;;;20.35;5.88;;;;;;;;;;4994013;28;92839;-69
2024/01/16 08:06:16;;;;;;;16.92;5.47;;;;;;;;;;5002228;28;94957;-69
2024/01/16 08:08:42;;;;;;;13.25;5.03;;;;;;;;;;5000443;28;92394;-69
2024/01/16 08:11:09;;;;;;;10.02;5.00;;;;;;;;;;5002641;28;92440;-70
2024/01/16 08:13:35;;;;;;;13.23;5.82;;;;;;;;;;4999394;28;93463;-67
2024/01/16 08:16:02;;;;;;;15.52;5.07;;;;;;;;;;5001272;28;92580;-67
2024/01/16 08:18:28;;;;;;;13.80;5.55;;;;;;;;;;4997989;28;93139;-68
2024/01/16 08:20:55;;;;;;;18.90;5.75;;;;;;;;;;5001068;28;93415;-67
2024/01/16 08:23:21;;;;;;;9.75;5.47;;;;;;;;;;5002189;28;91793;-68
2024/01/16 08:25:48;;;;;;;23.15;5.30;;;;;;;;;;5003586;28;93452;-67
2024/01/16 08:28:15;;;;;;;17.83;5.35;;;;;;;;;;4998807;28;93559;-67
2024/01/16 08:30:41;;;;;;;14.48;5.03;;;;;;;;;;5000195;28;94953;-68
2024/01/16 08:33:07;;;;;;;21.90;5.72;;;;;;;;;;5008360;28;95610;-69
2024/01/16 08:35:34;;;;;;;18.17;5.63;;;;;;;;;;4997904;28;92550;-69
2024/01/16 08:38:01;;;;;;;14.48;5.05;;;;;;;;;;5001880;28;93977;-68
2024/01/16 08:40:27;;;;;;;11.38;5.18;;;;;;;;;;5002703;28;93617;-68
2024/01/16 08:42:54;;;;;;;19.50;5.65;;;;;;;;;;5001047;28;92480;-68
2024/01/16 08:45:23;;;;;;;11.23;4.63;;;;;;;;;;5002594;28;95024;-68
2024/01/16 08:47:49;;;;;;;15.65;4.78;;;;;;;;;;4999353;28;92721;-69
2024/01/16 08:50:16;;;;;;;13.98;5.13;;;;;;;;;;5002057;28;92559;-68
2024/01/16 08:52:42;;;;;;;16.95;4.20;;;;;;;;;;5005430;28;93152;-69
2024/01/16 08:55:09;;;;;;;10.65;4.32;;;;;;;;;;5002882;28;94815;-68
2024/01/16 08:57:38;;;;;;;14.77;4.50;;;;;;;;;;4999627;28;95486;-69
2024/01/16 09:00:05;;;;;;;18.48;4.75;;;;;;;;;;4999010;28;93238;-69
2024/01/16 09:02:31;;;;;;;18.02;4.20;;;;;;;;;;5001703;28;92558;-69
2024/01/16 09:04:58;;;;;;;19.13;4.35;;;;;;;;;;4998862;28;93963;-69
2024/01/16 09:07:25;;;;;;;16.42;3.65;;;;;;;;;;4997894;28;93424;-69
2024/01/16 09:09:51;;;;;;;10.65;3.70;;;;;;;;;;4998325;28;92591;-69
2024/01/16 09:12:17;;;;;;;12.43;3.17;;;;;;;;;;5004143;28;93389;-69
2024/01/16 09:14:44;;;;;;;15.57;3.40;;;;;;;;;;5005669;28;93431;-69
2024/01/16 09:17:10;;;;;;;10.45;3.40;;;;;;;;;;4995224;28;93369;-69
2024/01/16 09:19:37;;;;;;;10.05;3.47;;;;;;;;;;5000435;28;96773;-69
2024/01/16 09:22:03;;;;;;;9.98;3.08;;;;;;;;;;5000154;28;92590;-68
2024/01/16 09:24:30;;;;;;;12.10;3.78;;;;;;;;;;5000507;28;93407;-69
2024/01/16 09:26:58;;;;;;;7.70;3.20;;;;;;;;;;5004618;28;93325;-68
2024/01/16 09:29:24;;;;;;;8.00;3.13;;;;;;;;;;5006572;28;92557;-69
2024/01/16 09:31:51;;;;;;;9.18;3.05;;;;;;;;;;5007449;28;94266;-69
2024/01/16 09:34:17;;;;;;;15.02;2.80;;;;;;;;;;5005363;28;93498;-69
2024/01/16 09:36:44;;;;;;;14.32;3.33;;;;;;;;;;5005888;28;91751;-69
2024/01/16 09:39:16;;;;;;;12.05;3.00;;;;;;;;;;5003443;28;93408;-68
2024/01/16 09:41:45;;;;;;;13.98;3.53;;;;;;;;;;5007864;28;92441;-68
2024/01/16 09:44:11;;;;;;;9.18;3.17;;;;;;;;;;5002470;28;94791;-68
2024/01/16 09:46:39;;;;;;;12.43;3.33;;;;;;;;;;5001588;28;93768;-67
2024/01/16 09:49:06;;;;;;;9.77;2.90;;;;;;;;;;5005034;28;92797;-69
2024/01/16 09:51:33;;;;;;;7.30;3.13;;;;;;;;;;4996022;28;93426;-72
2024/01/16 09:54:01;;;;;;;12.68;3.10;;;;;;;;;;5002703;28;93848;-72
2024/01/16 09:56:29;;;;;;;6.47;2.75;;;;;;;;;;4995728;28;92437;-72
2024/01/16 09:58:58;;;;;;;9.85;3.00;;;;;;;;;;5006881;28;93296;-73
2024/01/16 10:01:26;;;;;;;12.13;3.90;;;;;;;;;;4999990;28;91771;-72
2024/01/16 10:03:53;;;;;;;14.55;3.40;;;;;;;;;;4999684;28;92855;-68
2024/01/16 10:06:20;;;;;;;10.75;3.10;;;;;;;;;;5002739;28;93822;-67
2024/01/16 10:08:46;;;;;;;16.17;3.30;;;;;;;;;;5000095;28;95056;-68
2024/01/16 10:11:13;;;;;;;11.00;3.33;;;;;;;;;;5001487;28;95572;-69
2024/01/16 10:13:41;;;;;;;5.38;3.05;;;;;;;;;;5002783;28;93621;-67
2024/01/16 10:16:07;;;;;;;22.00;3.38;;;;;;;;;;5004602;28;92584;-69
2024/01/16 10:18:37;;;;;;;8.90;2.95;;;;;;;;;;5001464;28;94260;-67
2024/01/16 10:21:04;;;;;;;8.98;2.88;;;;;;;;;;5003357;28;93401;-68
2024/01/16 10:23:32;;;;;;;12.13;3.60;;;;;;;;;;5001614;28;93282;-69
2024/01/16 10:26:05;;;;;;;16.83;3.40;;;;;;;;;;5003212;28;92701;-68
2024/01/16 10:28:32;;;;;;;12.63;3.15;;;;;;;;;;5003794;28;92758;-67
2024/01/16 10:31:02;;;;;;;6.15;2.63;;;;;;;;;;5001474;28;93697;-69
2024/01/16 10:33:29;;;;;;;6.53;2.15;;;;;;;;;;5002956;28;96080;-66
2024/01/16 10:36:11;;;;;;;8.63;3.05;;;;;;;;;;5000686;28;94180;-68
2024/01/16 10:38:41;;;;;;;7.15;2.20;;;;;;;;;;4997707;28;94225;-67
2024/01/16 10:41:09;;;;;;;10.52;2.63;;;;;;;;;;5006174;28;92792;-67
2024/01/16 10:43:35;;;;;;;10.73;3.08;;;;;;;;;;5005917;28;92621;-66
2024/01/16 10:46:14;;;;;;;5.07;2.45;;;;;;;;;;5003820;28;93505;-66
2024/01/16 10:48:42;;;;;;;10.75;2.92;;;;;;;;;;5009049;28;92642;-65
2024/01/16 10:51:11;;;;;;;11.57;2.75;;;;;;;;;;4994646;28;93684;-66
2024/01/16 10:53:41;;;;;;;13.10;3.58;;;;;;;;;;4993674;28;94512;-67
2024/01/16 10:56:10;;;;;;;4.47;2.43;;;;;;;;;;5005367;28;92585;-67
2024/01/16 10:58:38;;;;;;;8.82;3.00;;;;;;;;;;4995199;28;95471;-67
2024/01/16 11:01:05;;;;;;;7.35;2.95;;;;;;;;;;5001910;28;93435;-66
2024/01/16 11:03:38;;;;;;;5.40;2.28;;;;;;;;;;5003269;28;92881;-66
2024/01/16 11:06:05;;;;;;;10.15;3.10;;;;;;;;;;4998200;28;93912;-67
2024/01/16 11:08:33;;;;;;;10.63;2.67;;;;;;;;;;5000454;28;93391;-67
2024/01/16 11:11:00;;;;;;;6.80;2.45;;;;;;;;;;5004514;28;93085;-67
2024/01/16 11:13:27;;;;;;;10.52;2.97;;;;;;;;;;4997104;28;94015;-67
2024/01/16 11:15:54;;;;;;;8.32;2.38;;;;;;;;;;4998132;28;91772;-68
2024/01/16 11:18:21;;;;;;;6.10;2.20;;;;;;;;;;4996973;28;92538;-67
2024/01/16 11:20:47;;;;;;;8.25;2.15;;;;;;;;;;4997392;28;92652;-69
2024/01/16 11:23:32;;;;;;;8.40;2.03;;;;;;;;;;4998480;28;94863;-66
2024/01/16 11:25:59;;;;;;;8.25;2.17;;;;;;;;;;4997450;28;95585;-66
2024/01/16 11:28:32;;;;;;;6.05;1.92;;;;;;;;;;5000370;28;92611;-67
2024/01/16 11:31:18;;;;;;;5.82;2.03;;;;;;;;;;4998913;28;92939;-67
2024/01/16 11:33:45;;;;;;;6.40;2.20;;;;;;;;;;5000938;28;94363;-67
2024/01/16 11:36:30;;;;;;;8.80;1.83;;;;;;;;;;5004605;28;92738;-66
2024/01/16 11:38:57;;;;;;;5.35;2.40;;;;;;;;;;4997207;28;93285;-68
2024/01/16 11:41:42;;;;;;;6.07;2.30;;;;;;;;;;4997033;28;92418;-67
2024/01/16 11:44:28;;;;;;;5.63;2.10;;;;;;;;;;4999746;28;94492;-68
2024/01/16 11:47:00;;;;;;;8.13;2.10;;;;;;;;;;4999097;28;92461;-66
2024/01/16 11:49:26;;;;;;;6.00;1.85;;;;;;;;;;5005858;28;95690;-64
2024/01/16 11:51:53;;;;;;;6.85;1.73;;;;;;;;;;5002514;28;95386;-66
2024/01/16 11:54:19;;;;;;;6.53;2.03;;;;;;;;;;5000731;28;93453;-66
2024/01/16 11:57:01;;;;;;;3.35;1.65;;;;;;;;;;5004195;28;92432;-67
2024/01/16 11:59:50;;;;;;;6.38;2.25;;;;;;;;;;4997231;28;93377;-67
2024/01/16 12:02:21;;;;;;;7.57;2.28;;;;;;;;;;5001808;28;93752;-68
2024/01/16 12:04:53;;;;;;;9.30;2.13;;;;;;;;;;4994731;28;92581;-67
2024/01/16 12:07:19;;;;;;;8.18;1.80;;;;;;;;;;4997307;28;93672;-67
2024/01/16 12:09:45;;;;;;;9.18;2.00;;;;;;;;;;5001365;28;93463;-66
2024/01/16 12:12:15;;;;;;;12.20;2.67;;;;;;;;;;5003084;28;92580;-70
2024/01/16 12:14:50;;;;;;;6.28;2.40;;;;;;;;;;4995864;28;96456;-67
2024/01/16 12:17:20;;;;;;;7.53;3.15;;;;;;;;;;5005216;28;92492;-65
2024/01/16 12:19:46;;;;;;;10.55;2.60;;;;;;;;;;4996235;28;96503;-70
2024/01/16 12:22:13;;;;;;;7.32;2.67;;;;;;;;;;4998446;28;93433;-67
2024/01/16 12:24:40;;;;;;;7.07;2.67;;;;;;;;;;4998725;28;92469;-68
2024/01/16 12:27:08;;;;;;;5.00;2.20;;;;;;;;;;5001069;28;93083;-68
2024/01/16 12:29:34;;;;;;;7.68;2.53;;;;;;;;;;4992679;28;93462;-68
2024/01/16 12:32:04;;;;;;;13.02;2.70;;;;;;;;;;4996543;28;91832;-68
2024/01/16 12:34:31;;;;;;;9.60;2.50;;;;;;;;;;5002107;28;92699;-68
2024/01/16 12:37:05;;;;;;;10.52;2.58;;;;;;;;;;5002560;28;92452;-68
2024/01/16 12:39:32;;;;;;;8.77;2.63;;;;;;;;;;5001040;28;94790;-68
2024/01/16 12:41:59;;;;;;;12.68;3.55;;;;;;;;;;5001922;28;92493;-69
2024/01/16 12:44:28;;;;;;;10.05;2.97;;;;;;;;;;5004146;28;92457;-68
2024/01/16 12:46:56;;;;;;;7.00;2.78;;;;;;;;;;5001865;28;94132;-68
2024/01/16 12:49:23;;;;;;;9.05;2.60;;;;;;;;;;4998708;28;93537;-69
2024/01/16 12:51:50;;;;;;;8.32;3.08;;;;;;;;;;4997042;28;92470;-68
2024/01/16 12:54:18;;;;;;;8.45;2.65;;;;;;;;;;5000026;28;93146;-69
2024/01/16 12:56:45;;;;;;;10.05;2.72;;;;;;;;;;5004180;28;93058;-68
2024/01/16 12:59:12;;;;;;;8.40;3.17;;;;;;;;;;5000558;28;92546;-68
2024/01/16 13:01:43;;;;;;;10.30;3.08;;;;;;;;;;5002708;28;93436;-69
2024/01/16 13:04:10;;;;;;;8.43;3.22;;;;;;;;;;5000714;28;95057;-68
2024/01/16 13:06:37;;;;;;;11.32;3.30;;;;;;;;;;5002339;28;96001;-68
2024/01/16 13:09:19;;;;;;;9.52;3.13;;;;;;;;;;5003146;28;94529;-68
2024/01/16 13:11:47;;;;;;;11.73;3.53;;;;;;;;;;5001020;28;92586;-68
2024/01/16 13:14:13;;;;;;;7.50;3.30;;;;;;;;;;4999780;28;93733;-68
2024/01/16 13:16:40;;;;;;;8.73;3.05;;;;;;;;;;5001454;28;93442;-68
2024/01/16 13:19:09;;;;;;;7.53;2.75;;;;;;;;;;5004231;28;96520;-67
2024/01/16 13:21:36;;;;;;;6.10;2.97;;;;;;;;;;5002870;28;92285;-67
2024/01/16 13:24:03;;;;;;;14.18;3.33;;;;;;;;;;5001528;28;92582;-67
2024/01/16 13:26:29;;;;;;;7.97;2.83;;;;;;;;;;5001977;28;94435;-67
2024/01/16 13:28:56;;;;;;;6.72;2.80;;;;;;;;;;4999023;28;95836;-67
2024/01/16 13:31:22;;;;;;;7.45;2.53;;;;;;;;;;5000168;28;92558;-67
2024/01/16 13:33:48;;;;;;;8.55;2.33;;;;;;;;;;4996879;28;93521;-66
2024/01/16 13:36:16;;;;;;;13.77;2.83;;;;;;;;;;5001768;28;94460;-67
2024/01/16 13:38:50;;;;;;;7.70;2.50;;;;;;;;;;5003715;28;92525;-67
2024/01/16 13:41:16;;;;;;;7.40;2.60;;;;;;;;;;4992020;28;95214;-66
2024/01/16 13:43:43;;;;;;;6.63;2.85;;;;;;;;;;5003210;28;92422;-66
2024/01/16 13:46:10;;;;;;;8.02;2.85;;;;;;;;;;5002743;28;91860;-67
2024/01/16 13:48:36;;;;;;;7.80;2.65;;;;;;;;;;4999656;28;93719;-66
2024/01/16 13:51:04;;;;;;;17.50;3.20;;;;;;;;;;4997309;28;92545;-67
2024/01/16 13:53:30;;;;;;;4.97;2.38;;;;;;;;;;5001851;28;94984;-67
2024/01/16 13:55:58;;;;;;;7.75;2.65;;;;;;;;;;4999605;28;94704;-67
2024/01/16 13:58:24;;;;;;;6.07;2.55;;;;;;;;;;5004152;28;92689;-67
2024/01/16 14:00:51;;;;;;;12.85;2.28;;;;;;;;;;5001614;28;93089;-66
2024/01/16 14:03:17;;;;;;;13.02;2.83;;;;;;;;;;5000074;28;92503;-67
2024/01/16 14:05:45;;;;;;;6.35;2.55;;;;;;;;;;5002635;28;93453;-67
2024/01/16 14:08:12;;;;;;;6.28;3.05;;;;;;;;;;4999532;28;93427;-66
2024/01/16 14:10:39;;;;;;;11.07;2.80;;;;;;;;;;4997013;28;92173;-66
2024/01/16 14:13:06;;;;;;;7.63;3.25;;;;;;;;;;4997699;28;92734;-66
2024/01/16 14:15:32;;;;;;;9.95;3.47;;;;;;;;;;5002281;28;94508;-66
2024/01/16 14:17:59;;;;;;;6.00;2.55;;;;;;;;;;5001422;28;94824;-66
2024/01/16 14:20:26;;;;;;;8.93;2.90;;;;;;;;;;5005309;28;95492;-66
2024/01/16 14:22:54;;;;;;;8.32;2.78;;;;;;;;;;4997782;28;93643;-66
2024/01/16 14:25:22;;;;;;;15.57;3.85;;;;;;;;;;4998995;28;93125;-66
2024/01/16 14:27:55;;;;;;;6.68;2.33;;;;;;;;;;5002982;28;93448;-68
2024/01/16 14:30:21;;;;;;;4.88;2.88;;;;;;;;;;5003187;28;92698;-68
2024/01/16 14:32:48;;;;;;;6.70;2.85;;;;;;;;;;5000138;28;93150;-68
2024/01/16 14:35:17;;;;;;;11.05;2.72;;;;;;;;;;5003109;28;93648;-68
2024/01/16 14:37:44;;;;;;;10.73;2.95;;;;;;;;;;5002326;28;92441;-68
2024/01/16 14:40:20;;;;;;;8.05;2.78;;;;;;;;;;4998376;28;95098;-68